createdAt,value
2018-02-19T00:00:40.419Z,2.73
2018-02-19T00:02:07.551Z,2.71
2018-02-19T00:03:35.607Z,2.68
2018-02-19T00:05:01.637Z,2.68
2018-02-19T00:06:28.393Z,2.69
2018-02-19T00:07:55.744Z,2.68
2018-02-19T00:09:22.938Z,2.70
2018-02-19T00:10:50.247Z,2.71
2018-02-19T00:12:17.365Z,2.73
2018-02-19T00:13:44.748Z,2.71
2018-02-19T00:15:11.609Z,2.71
2018-02-19T00:16:39.705Z,2.73
2018-02-19T00:18:05.591Z,2.75
2018-02-19T00:19:32.454Z,2.76
2018-02-19T00:21:00.559Z,2.77
2018-02-19T00:22:26.729Z,2.76
2018-02-19T00:23:53.938Z,2.74
2018-02-19T00:25:21.977Z,2.73
2018-02-19T00:26:48.192Z,2.74
2018-02-19T00:28:15.261Z,2.74
2018-02-19T00:29:42.445Z,2.73
2018-02-19T00:31:09.403Z,2.75
2018-02-19T00:32:37.320Z,2.75
2018-02-19T00:34:04.694Z,2.75
2018-02-19T00:35:30.661Z,2.74
2018-02-19T00:36:58.832Z,2.73
2018-02-19T00:38:26.029Z,2.71
2018-02-19T00:39:51.608Z,2.72
2018-02-19T00:41:18.939Z,2.73
2018-02-19T00:42:45.976Z,2.73
2018-02-19T00:44:14.025Z,2.72
2018-02-19T00:45:40.038Z,2.73
2018-02-19T00:47:08.214Z,2.75
2018-02-19T00:48:35.443Z,2.75
2018-02-19T00:50:01.533Z,2.76
2018-02-19T00:51:29.448Z,2.75
2018-02-19T00:52:55.530Z,2.76
2018-02-19T00:54:22.718Z,2.77
2018-02-19T00:55:50.937Z,2.78
2018-02-19T00:57:18.151Z,2.79
2018-02-19T00:58:45.370Z,2.80
2018-02-19T01:00:12.679Z,2.78
2018-02-19T01:01:39.977Z,2.77
2018-02-19T01:03:06.127Z,2.74
2018-02-19T01:04:34.353Z,2.74
2018-02-19T01:06:01.287Z,2.73
2018-02-19T01:07:28.570Z,2.74
2018-02-19T01:08:55.700Z,2.74
2018-02-19T01:10:21.958Z,2.74
2018-02-19T01:11:49.099Z,2.75
2018-02-19T01:13:16.455Z,2.75
2018-02-19T01:14:43.959Z,2.73
2018-02-19T01:16:10.001Z,2.72
2018-02-19T01:17:38.189Z,2.72
2018-02-19T01:19:04.368Z,2.72
2018-02-19T01:20:31.551Z,2.69
2018-02-19T01:21:59.748Z,2.68
2018-02-19T01:23:25.811Z,2.67
2018-02-19T01:24:54.063Z,2.67
2018-02-19T01:26:19.933Z,2.68
2018-02-19T01:27:48.208Z,2.66
2018-02-19T01:29:14.281Z,2.64
2018-02-19T01:30:42.511Z,2.64
2018-02-19T01:32:09.652Z,2.65
2018-02-19T01:33:36.812Z,2.64
2018-02-19T01:35:03.017Z,2.61
2018-02-19T01:36:30.898Z,2.59
2018-02-19T01:37:58.086Z,2.59
2018-02-19T01:39:25.303Z,2.62
2018-02-19T01:40:52.378Z,2.61
2018-02-19T01:42:19.341Z,2.59
2018-02-19T01:43:45.678Z,2.59
2018-02-19T01:45:12.900Z,2.59
2018-02-19T01:46:40.162Z,2.57
2018-02-19T01:48:07.206Z,2.57
2018-02-19T01:49:34.278Z,2.56
2018-02-19T01:51:01.407Z,2.55
2018-02-19T01:52:28.171Z,2.55
2018-02-19T01:53:55.363Z,2.55
2018-02-19T01:55:23.620Z,2.56
2018-02-19T01:56:49.923Z,2.57
2018-02-19T01:58:18.161Z,2.55
2018-02-19T01:59:44.369Z,2.55
2018-02-19T02:01:11.701Z,2.57
2018-02-19T02:02:39.857Z,2.58
2018-02-19T02:04:05.797Z,2.58
2018-02-19T02:05:32.875Z,2.60
2018-02-19T02:06:59.820Z,2.59
2018-02-19T02:08:28.104Z,2.61
2018-02-19T02:09:54.244Z,2.62
2018-02-19T02:11:22.478Z,2.61
2018-02-19T02:12:49.713Z,2.61
2018-02-19T02:14:15.683Z,2.59
2018-02-19T02:15:43.951Z,2.58
2018-02-19T02:17:11.127Z,2.56
2018-02-19T02:18:37.338Z,2.55
2018-02-19T02:20:05.224Z,2.54
2018-02-19T02:21:31.329Z,2.52
2018-02-19T02:22:59.552Z,2.52
2018-02-19T02:24:26.707Z,2.52
2018-02-19T02:25:54.020Z,2.53
2018-02-19T02:27:20.074Z,2.47
2018-02-19T02:28:47.213Z,2.45
2018-02-19T02:30:14.117Z,2.44
2018-02-19T02:31:40.977Z,2.45
2018-02-19T02:33:09.153Z,2.46
2018-02-19T02:34:35.297Z,2.46
2018-02-19T02:36:02.324Z,2.49
2018-02-19T02:37:30.161Z,2.51
2018-02-19T02:38:56.322Z,2.52
2018-02-19T02:40:24.640Z,2.51
2018-02-19T02:41:50.891Z,2.52
2018-02-19T02:43:17.854Z,2.52
2018-02-19T02:44:46.062Z,2.50
2018-02-19T02:46:12.239Z,2.50
2018-02-19T02:47:40.540Z,2.49
2018-02-19T02:49:06.630Z,2.49
2018-02-19T02:50:33.898Z,2.47
2018-02-19T02:52:01.915Z,2.44
2018-02-19T02:53:27.779Z,2.44
2018-02-19T02:54:56.053Z,2.45
2018-02-19T02:56:23.321Z,2.44
2018-02-19T02:57:50.716Z,2.42
2018-02-19T02:59:18.038Z,2.37
2018-02-19T03:00:45.161Z,2.37
2018-02-19T03:02:12.251Z,2.38
2018-02-19T03:03:39.400Z,2.38
2018-02-19T03:05:05.516Z,2.38
2018-02-19T03:06:32.606Z,2.40
2018-02-19T03:08:00.494Z,2.41
2018-02-19T03:09:27.778Z,2.43
2018-02-19T03:10:53.789Z,2.43
2018-02-19T03:12:21.798Z,2.43
2018-02-19T03:13:48.799Z,2.41
2018-02-19T03:15:14.901Z,2.39
2018-02-19T03:16:42.101Z,2.37
2018-02-19T03:18:09.335Z,2.35
2018-02-19T03:19:37.123Z,2.33
2018-02-19T03:21:04.273Z,2.32
2018-02-19T03:22:31.137Z,2.31
2018-02-19T03:23:58.366Z,2.32
2018-02-19T03:25:24.040Z,2.32
2018-02-19T03:26:52.142Z,2.32
2018-02-19T03:28:18.404Z,2.31
2018-02-19T03:29:45.637Z,2.28
2018-02-19T03:31:13.937Z,2.27
2018-02-19T03:32:40.922Z,2.27
2018-02-19T03:34:07.118Z,2.26
2018-02-19T03:35:33.848Z,2.25
2018-02-19T03:37:00.607Z,2.27
2018-02-19T03:38:28.624Z,2.26
2018-02-19T03:39:55.708Z,2.25
2018-02-19T03:41:22.030Z,2.23
2018-02-19T03:42:50.047Z,2.21
2018-02-19T03:44:17.242Z,2.20
2018-02-19T03:45:43.322Z,2.19
2018-02-19T03:47:11.577Z,2.19
2018-02-19T03:48:37.691Z,2.18
2018-02-19T03:50:05.718Z,2.17
2018-02-19T03:51:31.914Z,2.17
2018-02-19T03:52:59.963Z,2.17
2018-02-19T03:54:26.051Z,2.18
2018-02-19T03:55:54.183Z,2.16
2018-02-19T03:57:21.496Z,2.13
2018-02-19T03:58:47.440Z,2.10
2018-02-19T04:00:14.548Z,2.08
2018-02-19T04:01:41.451Z,2.07
2018-02-19T04:03:08.424Z,2.03
2018-02-19T04:04:36.365Z,2.01
2018-02-19T04:06:02.434Z,1.99
2018-02-19T04:07:30.558Z,1.98
2018-02-19T04:08:57.558Z,1.97
2018-02-19T04:10:23.793Z,1.97
2018-02-19T04:11:50.738Z,1.99
2018-02-19T04:13:18.951Z,2.00
2018-02-19T04:14:44.938Z,2.02
2018-02-19T04:16:12.926Z,2.02
2018-02-19T04:17:39.862Z,2.04
2018-02-19T04:19:06.162Z,2.06
2018-02-19T04:20:34.272Z,2.06
2018-02-19T04:22:01.138Z,2.06
2018-02-19T04:23:27.324Z,2.07
2018-02-19T04:24:54.419Z,2.06
2018-02-19T04:26:22.537Z,2.06
2018-02-19T04:27:49.675Z,2.08
2018-02-19T04:29:16.675Z,2.09
2018-02-19T04:30:43.692Z,2.10
2018-02-19T04:32:09.650Z,2.10
2018-02-19T04:33:37.588Z,2.11
2018-02-19T04:35:03.537Z,2.12
2018-02-19T04:36:30.721Z,2.13
2018-02-19T04:37:58.908Z,2.09
2018-02-19T04:39:24.626Z,2.08
2018-02-19T04:40:51.913Z,2.09
2018-02-19T04:42:19.951Z,2.09
2018-02-19T04:43:46.960Z,2.08
2018-02-19T04:45:13.980Z,2.05
2018-02-19T04:46:40.029Z,2.03
2018-02-19T04:48:07.214Z,2.00
2018-02-19T04:49:34.461Z,1.96
2018-02-19T04:51:02.496Z,1.96
2018-02-19T04:52:28.480Z,1.95
2018-02-19T04:53:56.630Z,1.93
2018-02-19T04:55:22.857Z,1.92
2018-02-19T04:56:50.065Z,1.92
2018-02-19T04:58:18.293Z,1.90
2018-02-19T04:59:44.517Z,1.90
2018-02-19T05:01:12.714Z,1.91
2018-02-19T05:02:39.869Z,1.89
2018-02-19T05:04:06.866Z,1.89
2018-02-19T05:05:32.986Z,1.89
2018-02-19T05:07:00.888Z,1.89
2018-02-19T05:08:27.796Z,1.89
2018-02-19T05:09:53.999Z,1.92
2018-02-19T05:11:21.175Z,1.90
2018-02-19T05:12:49.296Z,1.93
2018-02-19T05:14:16.547Z,1.95
2018-02-19T05:15:43.525Z,1.97
2018-02-19T05:17:10.560Z,1.96
2018-02-19T05:18:36.719Z,1.93
2018-02-19T05:20:04.835Z,1.87
2018-02-19T05:21:30.863Z,1.87
2018-02-19T05:22:58.217Z,1.83
2018-02-19T05:24:25.219Z,1.86
2018-02-19T05:25:52.472Z,1.89
2018-02-19T05:27:20.432Z,1.87
2018-02-19T05:28:46.776Z,1.85
2018-02-19T05:30:13.896Z,1.82
2018-02-19T05:31:42.097Z,1.75
2018-02-19T05:33:08.222Z,1.71
2018-02-19T05:34:36.494Z,1.71
2018-02-19T05:36:02.620Z,1.68
2018-02-19T05:37:30.809Z,1.68
2018-02-19T05:38:56.702Z,1.71
2018-02-19T05:40:24.859Z,1.73
2018-02-19T05:41:51.113Z,1.74
2018-02-19T05:43:18.129Z,1.72
2018-02-19T05:44:45.240Z,1.72
2018-02-19T05:46:12.372Z,1.73
2018-02-19T05:47:39.492Z,1.73
2018-02-19T05:49:07.622Z,1.75
2018-02-19T05:50:34.602Z,1.74
2018-02-19T05:52:01.682Z,1.77
2018-02-19T05:53:27.913Z,1.76
2018-02-19T05:54:56.063Z,1.78
2018-02-19T05:56:22.290Z,1.76
2018-02-19T05:57:49.429Z,1.74
2018-02-19T05:59:17.752Z,1.74
2018-02-19T06:00:45.130Z,1.76
2018-02-19T06:02:11.183Z,1.78
2018-02-19T06:03:38.982Z,1.80
2018-02-19T06:05:06.319Z,1.81
2018-02-19T06:06:32.533Z,1.81
2018-02-19T06:07:59.269Z,1.80
2018-02-19T06:09:26.491Z,1.79
2018-02-19T06:10:53.668Z,1.80
2018-02-19T06:12:20.901Z,1.79
2018-02-19T06:13:48.671Z,1.76
2018-02-19T06:15:15.806Z,1.74
2018-02-19T06:16:42.818Z,1.77
2018-02-19T06:18:09.006Z,1.78
2018-02-19T06:19:37.246Z,1.80
2018-02-19T06:21:03.320Z,1.77
2018-02-19T06:22:30.073Z,1.79
2018-02-19T06:23:57.105Z,1.81
2018-02-19T06:25:25.112Z,1.84
2018-02-19T06:26:52.394Z,1.85
2018-02-19T06:28:18.323Z,1.84
2018-02-19T06:29:45.217Z,1.83
2018-02-19T06:31:13.258Z,1.83
2018-02-19T06:32:39.465Z,1.86
2018-02-19T06:34:07.642Z,1.87
2018-02-19T06:35:33.706Z,1.89
2018-02-19T06:37:01.611Z,1.89
2018-02-19T06:38:27.601Z,1.90
2018-02-19T06:39:55.804Z,1.90
2018-02-19T06:41:21.671Z,1.90
2018-02-19T06:42:49.603Z,1.92
2018-02-19T06:44:16.726Z,1.92
2018-02-19T06:45:42.937Z,1.92
2018-02-19T06:47:11.192Z,1.92
2018-02-19T06:48:37.177Z,1.93
2018-02-19T06:50:05.219Z,1.94
2018-02-19T06:51:30.614Z,1.93
2018-02-19T06:52:58.800Z,1.89
2018-02-19T06:54:24.540Z,1.89
2018-02-19T06:55:51.560Z,1.91
2018-02-19T06:57:19.725Z,1.90
2018-02-19T06:58:46.782Z,1.88
2018-02-19T07:00:13.933Z,1.88
2018-02-19T07:01:40.829Z,1.85
2018-02-19T07:03:07.041Z,1.82
2018-02-19T07:04:35.195Z,1.82
2018-02-19T07:06:01.403Z,1.82
2018-02-19T07:07:29.798Z,1.83
2018-02-19T07:08:56.079Z,1.87
2018-02-19T07:10:24.319Z,1.91
2018-02-19T07:11:50.400Z,1.96
2018-02-19T07:13:17.495Z,1.99
2018-02-19T07:14:44.759Z,2.04
2018-02-19T07:16:12.909Z,2.07
2018-02-19T07:17:38.590Z,2.10
2018-02-19T07:19:05.607Z,2.10
2018-02-19T07:20:33.785Z,2.11
2018-02-19T07:21:59.712Z,2.13
2018-02-19T07:23:27.745Z,2.14
2018-02-19T07:24:53.890Z,2.16
2018-02-19T07:26:21.922Z,2.17
2018-02-19T07:27:47.883Z,2.17
2018-02-19T07:29:16.039Z,2.19
2018-02-19T07:30:42.188Z,2.20
2018-02-19T07:32:09.879Z,2.23
2018-02-19T07:33:36.002Z,2.22
2018-02-19T07:35:04.146Z,2.26
2018-02-19T07:36:31.299Z,2.26
2018-02-19T07:37:57.401Z,2.23
2018-02-19T07:39:25.548Z,2.24
2018-02-19T07:40:51.604Z,2.27
2018-02-19T07:42:19.803Z,2.30
2018-02-19T07:43:46.940Z,2.32
2018-02-19T07:45:14.199Z,2.33
2018-02-19T07:46:41.091Z,2.32
2018-02-19T07:48:07.278Z,2.26
2018-02-19T07:49:34.561Z,2.30
2018-02-19T07:51:02.829Z,2.33
2018-02-19T07:52:28.950Z,2.36
2018-02-19T07:53:57.243Z,2.39
2018-02-19T07:55:23.502Z,2.43
2018-02-19T07:56:51.538Z,2.45
2018-02-19T07:58:18.544Z,2.47
2018-02-19T07:59:44.753Z,2.46
2018-02-19T08:01:12.076Z,2.49
2018-02-19T08:02:39.288Z,2.50
2018-02-19T08:04:07.369Z,2.53
2018-02-19T08:05:34.368Z,2.54
2018-02-19T08:07:00.458Z,2.54
2018-02-19T08:08:28.636Z,2.52
2018-02-19T08:09:54.935Z,2.51
2018-02-19T08:11:23.196Z,2.48
2018-02-19T08:12:49.390Z,2.47
2018-02-19T08:14:16.281Z,2.45
2018-02-19T08:15:43.386Z,2.49
2018-02-19T08:17:10.440Z,2.51
2018-02-19T08:18:38.818Z,2.47
2018-02-19T08:20:05.944Z,2.47
2018-02-19T08:21:32.197Z,2.49
2018-02-19T08:22:59.017Z,2.50
2018-02-19T08:24:27.137Z,2.51
2018-02-19T08:25:53.398Z,2.54
2018-02-19T08:27:20.607Z,2.57
2018-02-19T08:28:47.556Z,2.59
2018-02-19T08:30:14.758Z,2.62
2018-02-19T08:31:42.038Z,2.64
2018-02-19T08:33:09.472Z,2.68
2018-02-19T08:34:37.648Z,2.71
2018-02-19T08:36:04.656Z,2.71
2018-02-19T08:37:30.641Z,2.73
2018-02-19T08:38:57.666Z,2.76
2018-02-19T08:40:24.940Z,2.78
2018-02-19T08:41:53.065Z,2.80
2018-02-19T08:43:20.343Z,2.82
2018-02-19T08:44:47.583Z,2.83
2018-02-19T08:46:14.792Z,2.86
2018-02-19T08:47:42.006Z,2.89
2018-02-19T08:49:08.315Z,2.92
2018-02-19T08:50:36.409Z,2.94
2018-02-19T08:52:02.607Z,2.96
2018-02-19T08:53:30.636Z,2.97
2018-02-19T08:54:56.929Z,2.99
2018-02-19T08:56:24.195Z,3.01
2018-02-19T08:57:51.295Z,3.06
2018-02-19T08:59:18.449Z,3.10
2018-02-19T09:00:46.778Z,3.12
2018-02-19T09:02:13.998Z,3.15
2018-02-19T09:03:40.358Z,3.18
2018-02-19T09:05:08.542Z,3.20
2018-02-19T09:06:35.759Z,3.23
2018-02-19T09:08:02.910Z,3.23
2018-02-19T09:09:28.993Z,3.26
2018-02-19T09:10:57.271Z,3.29
2018-02-19T09:12:24.386Z,3.32
2018-02-19T09:13:51.283Z,3.36
2018-02-19T09:15:18.672Z,3.40
2018-02-19T09:16:45.869Z,3.43
2018-02-19T09:18:12.180Z,3.46
2018-02-19T09:19:39.269Z,3.50
2018-02-19T09:21:06.539Z,3.54
2018-02-19T09:22:33.728Z,3.54
2018-02-19T09:24:00.863Z,3.53
2018-02-19T09:25:33.694Z,3.55
2018-02-19T09:26:54.692Z,3.56
2018-02-19T09:28:21.926Z,3.57
2018-02-19T09:29:50.101Z,3.58
2018-02-19T09:31:16.209Z,3.61
2018-02-19T09:32:43.409Z,3.49
2018-02-19T09:34:11.622Z,3.39
2018-02-19T09:35:37.732Z,3.36
2018-02-19T09:37:04.939Z,3.38
2018-02-19T09:38:31.994Z,3.42
2018-02-19T09:39:58.954Z,3.49
2018-02-19T09:41:27.243Z,3.54
2018-02-19T09:42:54.319Z,3.57
2018-02-19T09:44:21.539Z,3.63
2018-02-19T09:45:47.768Z,3.69
2018-02-19T09:47:15.980Z,3.72
2018-02-19T09:48:42.343Z,3.75
2018-02-19T09:50:09.497Z,3.76
2018-02-19T09:51:37.818Z,3.78
2018-02-19T09:53:03.955Z,3.75
2018-02-19T09:54:31.094Z,3.77
2018-02-19T09:55:59.291Z,3.79
2018-02-19T09:57:25.377Z,3.80
2018-02-19T09:58:53.764Z,3.81
2018-02-19T10:00:19.938Z,3.81
2018-02-19T10:01:47.442Z,3.81
2018-02-19T10:03:13.582Z,3.83
2018-02-19T10:04:41.461Z,3.85
2018-02-19T10:06:07.860Z,3.87
2018-02-19T10:07:35.994Z,3.89
2018-02-19T10:09:03.226Z,3.91
2018-02-19T10:10:30.388Z,3.94
2018-02-19T10:11:57.612Z,3.93
2018-02-19T10:13:24.977Z,3.93
2018-02-19T10:14:51.187Z,3.95
2018-02-19T10:16:19.387Z,3.99
2018-02-19T10:17:45.591Z,4.02
2018-02-19T10:19:12.400Z,4.02
2018-02-19T10:20:40.570Z,4.04
2018-02-19T10:22:06.550Z,4.08
2018-02-19T10:23:34.396Z,4.11
2018-02-19T10:25:01.361Z,4.12
2018-02-19T10:26:27.644Z,4.12
2018-02-19T10:27:55.961Z,4.14
2018-02-19T10:29:23.298Z,4.13
2018-02-19T10:30:50.603Z,4.12
2018-02-19T10:32:16.402Z,4.13
2018-02-19T10:33:43.767Z,4.15
2018-02-19T10:35:11.548Z,4.18
2018-02-19T10:36:38.396Z,4.21
2018-02-19T10:38:04.641Z,4.24
2018-02-19T10:39:32.861Z,4.23
2018-02-19T10:40:59.750Z,4.20
2018-02-19T10:42:27.085Z,4.14
2018-02-19T10:43:54.364Z,4.13
2018-02-19T10:45:21.713Z,4.18
2018-02-19T10:46:47.297Z,4.24
2018-02-19T10:48:14.028Z,4.30
2018-02-19T10:49:42.237Z,4.34
2018-02-19T10:51:09.397Z,4.40
2018-02-19T10:52:45.378Z,4.45
2018-02-19T10:54:13.306Z,4.50
2018-02-19T10:55:39.458Z,4.53
2018-02-19T10:57:06.506Z,4.57
2018-02-19T10:58:33.741Z,4.61
2018-02-19T11:00:01.576Z,4.63
2018-02-19T11:01:27.692Z,4.67
2018-02-19T11:02:54.936Z,4.63
2018-02-19T11:04:22.190Z,4.61
2018-02-19T11:05:49.271Z,4.65
2018-02-19T11:07:16.495Z,4.72
2018-02-19T11:08:44.477Z,4.79
2018-02-19T11:10:10.641Z,4.86
2018-02-19T11:11:37.729Z,4.94
2018-02-19T11:13:04.777Z,4.89
2018-02-19T11:14:31.788Z,4.95
2018-02-19T11:15:58.471Z,5.04
2018-02-19T11:17:25.604Z,5.06
2018-02-19T11:18:52.623Z,5.07
2018-02-19T11:20:19.697Z,5.16
2018-02-19T11:21:46.975Z,5.24
2018-02-19T11:23:23.917Z,5.30
2018-02-19T11:24:50.728Z,5.32
2018-02-19T11:26:18.983Z,5.39
2018-02-19T11:27:45.212Z,5.43
2018-02-19T11:29:13.403Z,5.49
2018-02-19T11:30:40.553Z,5.58
2018-02-19T11:32:06.291Z,5.66
2018-02-19T11:33:34.511Z,5.74
2018-02-19T11:35:00.358Z,5.83
2018-02-19T11:36:28.516Z,5.90
2018-02-19T11:37:55.592Z,5.96
2018-02-19T11:39:21.876Z,6.04
2018-02-19T11:40:49.146Z,6.12
2018-02-19T11:42:15.992Z,6.15
2018-02-19T11:43:43.121Z,6.20
2018-02-19T11:45:11.334Z,6.24
2018-02-19T11:46:37.546Z,6.34
2018-02-19T11:48:04.669Z,6.43
2018-02-19T11:49:31.553Z,6.53
2018-02-19T11:50:58.533Z,6.64
2018-02-19T11:52:25.806Z,6.74
2018-02-19T11:53:52.546Z,6.75
2018-02-19T11:55:20.812Z,6.79
2018-02-19T11:56:48.065Z,6.67
2018-02-19T11:58:14.171Z,6.47
2018-02-19T11:59:41.508Z,6.41
2018-02-19T12:01:09.587Z,6.49
2018-02-19T12:02:35.848Z,6.62
2018-02-19T12:04:03.071Z,6.66
2018-02-19T12:05:30.087Z,6.72
2018-02-19T12:06:56.802Z,6.82
2018-02-19T12:08:24.068Z,6.94
2018-02-19T12:09:51.322Z,7.07
2018-02-19T12:11:18.565Z,7.19
2018-02-19T12:12:46.810Z,7.23
2018-02-19T12:14:13.167Z,7.26
2018-02-19T12:15:46.392Z,7.24
2018-02-19T12:17:07.669Z,7.33
2018-02-19T12:18:34.879Z,7.48
2018-02-19T12:20:03.155Z,7.59
2018-02-19T12:21:30.006Z,7.74
2018-02-19T12:22:56.441Z,7.90
2018-02-19T12:24:24.640Z,8.06
2018-02-19T12:25:51.923Z,7.94
2018-02-19T12:27:18.131Z,7.96
2018-02-19T12:28:46.444Z,8.06
2018-02-19T12:30:12.700Z,7.95
2018-02-19T12:31:40.140Z,8.13
2018-02-19T12:33:07.227Z,8.36
2018-02-19T12:34:34.632Z,8.34
2018-02-19T12:36:01.906Z,8.48
2018-02-19T12:37:30.010Z,8.68
2018-02-19T12:38:57.442Z,8.84
2018-02-19T12:40:23.861Z,8.98
2018-02-19T12:41:52.249Z,9.17
2018-02-19T12:43:18.572Z,9.35
2018-02-19T12:44:45.740Z,9.39
2018-02-19T12:46:13.495Z,9.52
2018-02-19T12:47:39.853Z,9.55
2018-02-19T12:49:07.076Z,9.57
2018-02-19T12:50:34.407Z,9.22
2018-02-19T12:52:01.772Z,9.17
2018-02-19T12:53:28.483Z,9.26
2018-02-19T12:54:55.878Z,9.44
2018-02-19T12:56:22.598Z,9.55
2018-02-19T12:57:49.912Z,9.59
2018-02-19T12:59:18.294Z,9.74
2018-02-19T13:00:45.508Z,9.82
2018-02-19T13:02:11.914Z,9.70
2018-02-19T13:03:38.861Z,9.73
2018-02-19T13:05:07.114Z,9.81
2018-02-19T13:06:34.446Z,9.86
2018-02-19T13:08:01.546Z,9.76
2018-02-19T13:09:27.919Z,9.74
2018-02-19T13:10:55.351Z,9.74
2018-02-19T13:12:22.790Z,9.61
2018-02-19T13:13:51.073Z,9.60
2018-02-19T13:15:17.352Z,9.38
2018-02-19T13:16:44.385Z,9.30
2018-02-19T13:18:12.774Z,9.29
2018-02-19T13:19:39.852Z,9.31
2018-02-19T13:21:06.243Z,9.24
2018-02-19T13:22:33.470Z,9.20
2018-02-19T13:24:00.407Z,9.20
2018-02-19T13:25:27.385Z,9.20
2018-02-19T13:26:54.695Z,9.15
2018-02-19T13:28:21.761Z,9.15
2018-02-19T13:29:49.606Z,9.14
2018-02-19T13:31:15.927Z,8.87
2018-02-19T13:32:43.279Z,8.67
2018-02-19T13:34:10.487Z,8.68
2018-02-19T13:35:37.876Z,8.55
2018-02-19T13:37:06.100Z,8.57
2018-02-19T13:38:33.191Z,8.60
2018-02-19T13:39:59.279Z,8.62
2018-02-19T13:41:27.617Z,8.64
2018-02-19T13:42:53.809Z,8.55
2018-02-19T13:44:21.128Z,8.53
2018-02-19T13:45:49.304Z,8.41
2018-02-19T13:47:15.405Z,8.21
2018-02-19T13:48:43.174Z,8.21
2018-02-19T13:50:10.359Z,8.05
2018-02-19T13:51:36.536Z,7.95
2018-02-19T13:53:04.705Z,7.99
2018-02-19T13:54:30.738Z,7.98
2018-02-19T13:55:59.144Z,8.03
2018-02-19T13:57:25.188Z,8.05
2018-02-19T13:58:52.608Z,8.09
2018-02-19T14:00:19.916Z,8.06
2018-02-19T14:01:47.279Z,8.04
2018-02-19T14:03:15.451Z,7.94
2018-02-19T14:04:42.803Z,7.94
2018-02-19T14:06:09.090Z,7.94
2018-02-19T14:07:37.329Z,7.90
2018-02-19T14:09:04.676Z,7.90
2018-02-19T14:10:31.856Z,7.90
2018-02-19T14:11:58.180Z,7.76
2018-02-19T14:13:25.471Z,7.76
2018-02-19T14:14:52.627Z,7.78
2018-02-19T14:16:20.402Z,7.79
2018-02-19T14:17:47.777Z,7.73
2018-02-19T14:19:14.049Z,7.68
2018-02-19T14:20:40.805Z,7.68
2018-02-19T14:22:08.748Z,7.71
2018-02-19T14:23:35.931Z,7.73
2018-02-19T14:25:03.173Z,7.73
2018-02-19T14:26:29.295Z,7.71
2018-02-19T14:27:56.666Z,7.72
2018-02-19T14:29:24.990Z,7.67
2018-02-19T14:30:51.249Z,7.67
2018-02-19T14:32:18.465Z,7.68
2018-02-19T14:33:46.839Z,7.64
2018-02-19T14:35:13.086Z,7.58
2018-02-19T14:36:40.371Z,7.57
2018-02-19T14:38:08.640Z,7.57
2018-02-19T14:39:34.826Z,7.57
2018-02-19T14:41:02.043Z,7.55
2018-02-19T14:42:29.973Z,7.51
2018-02-19T14:43:56.044Z,7.47
2018-02-19T14:45:23.278Z,7.38
2018-02-19T14:46:50.387Z,7.36
2018-02-19T14:48:17.724Z,7.34
2018-02-19T14:49:46.017Z,7.36
2018-02-19T14:51:12.423Z,7.39
2018-02-19T14:52:39.778Z,7.42
2018-02-19T14:54:07.806Z,7.46
2018-02-19T14:55:33.874Z,7.48
2018-02-19T14:57:01.162Z,7.48
2018-02-19T14:58:29.432Z,7.49
2018-02-19T14:59:55.721Z,7.48
2018-02-19T15:01:23.009Z,7.44
2018-02-19T15:02:50.271Z,7.39
2018-02-19T15:04:17.546Z,7.36
2018-02-19T15:05:45.792Z,7.36
2018-02-19T15:07:13.115Z,7.36
2018-02-19T15:08:39.339Z,7.35
2018-02-19T15:10:06.468Z,7.33
2018-02-19T15:11:34.514Z,7.32
2018-02-19T15:13:00.817Z,7.32
2018-02-19T15:14:28.122Z,7.32
2018-02-19T15:15:56.379Z,7.31
2018-02-19T15:17:23.636Z,7.30
2018-02-19T15:18:49.570Z,7.27
2018-02-19T15:20:16.703Z,7.25
2018-02-19T15:21:45.049Z,7.24
2018-02-19T15:23:12.069Z,7.23
2018-02-19T15:24:37.759Z,7.22
2018-02-19T15:26:04.814Z,7.21
2018-02-19T15:27:32.875Z,7.21
2018-02-19T15:28:59.847Z,7.17
2018-02-19T15:30:26.054Z,7.08
2018-02-19T15:31:53.306Z,7.00
2018-02-19T15:33:21.251Z,6.88
2018-02-19T15:34:47.451Z,6.77
2018-02-19T15:36:14.649Z,6.71
2018-02-19T15:37:41.924Z,6.60
2018-02-19T15:39:09.223Z,6.50
2018-02-19T15:40:36.449Z,6.43
2018-02-19T15:42:04.584Z,6.38
2018-02-19T15:43:30.616Z,6.30
2018-02-19T15:44:57.725Z,6.27
2018-02-19T15:46:25.964Z,6.24
2018-02-19T15:47:52.178Z,6.22
2018-02-19T15:49:20.429Z,6.22
2018-02-19T15:50:47.756Z,6.21
2018-02-19T15:52:14.023Z,6.20
2018-02-19T15:53:41.271Z,6.22
2018-02-19T15:55:08.652Z,6.28
2018-02-19T15:56:35.733Z,6.31
2018-02-19T15:58:02.855Z,6.34
2018-02-19T15:59:29.970Z,6.37
2018-02-19T16:00:58.415Z,6.39
2018-02-19T16:02:25.567Z,6.41
2018-02-19T16:03:51.925Z,6.42
2018-02-19T16:05:19.177Z,6.42
2018-02-19T16:06:47.192Z,6.41
2018-02-19T16:08:13.351Z,6.40
2018-02-19T16:09:40.756Z,6.39
2018-02-19T16:11:07.585Z,6.40
2018-02-19T16:12:34.761Z,6.39
2018-02-19T16:14:01.898Z,6.37
2018-02-19T16:15:29.133Z,6.34
2018-02-19T16:16:56.283Z,6.33
2018-02-19T16:18:23.396Z,6.32
2018-02-19T16:19:50.655Z,6.27
2018-02-19T16:21:17.828Z,6.24
2018-02-19T16:22:46.289Z,6.18
2018-02-19T16:24:13.455Z,6.15
2018-02-19T16:25:39.864Z,6.12
2018-02-19T16:27:08.163Z,6.10
2018-02-19T16:28:34.269Z,6.09
2018-02-19T16:30:02.314Z,6.07
2018-02-19T16:31:28.539Z,6.03
2018-02-19T16:32:56.776Z,5.99
2018-02-19T16:34:23.942Z,5.96
2018-02-19T16:35:50.130Z,5.95
2018-02-19T16:37:17.450Z,5.93
2018-02-19T16:38:44.765Z,5.91
2018-02-19T16:40:11.987Z,5.90
2018-02-19T16:41:39.184Z,5.89
2018-02-19T16:43:06.416Z,5.86
2018-02-19T16:44:33.548Z,5.83
2018-02-19T16:46:00.845Z,5.81
2018-02-19T16:47:28.123Z,5.77
2018-02-19T16:48:55.485Z,5.75
2018-02-19T16:50:23.937Z,5.73
2018-02-19T16:51:51.100Z,5.71
2018-02-19T16:53:18.450Z,5.69
2018-02-19T16:54:44.786Z,5.68
2018-02-19T16:56:12.003Z,5.67
2018-02-19T16:57:42.283Z,5.64
2018-02-19T16:59:06.369Z,5.63
2018-02-19T17:00:33.451Z,5.62
2018-02-19T17:02:00.692Z,5.61
2018-02-19T17:03:29.000Z,5.59
2018-02-19T17:04:56.176Z,5.52
2018-02-19T17:06:23.276Z,5.39
2018-02-19T17:07:50.471Z,5.18
2018-02-19T17:09:16.725Z,5.02
2018-02-19T17:10:43.867Z,4.88
2018-02-19T17:12:12.154Z,4.78
2018-02-19T17:13:39.474Z,4.72
2018-02-19T17:15:05.614Z,4.68
2018-02-19T17:16:33.790Z,4.68
2018-02-19T17:18:00.024Z,4.67
2018-02-19T17:19:27.106Z,4.68
2018-02-19T17:20:54.414Z,4.68
2018-02-19T17:22:21.315Z,4.65
2018-02-19T17:23:49.472Z,4.62
2018-02-19T17:25:15.790Z,4.63
2018-02-19T17:26:43.593Z,4.62
2018-02-19T17:28:10.760Z,4.65
2018-02-19T17:29:36.713Z,4.70
2018-02-19T17:31:04.864Z,4.75
2018-02-19T17:32:30.897Z,4.77
2018-02-19T17:33:58.341Z,4.77
2018-02-19T17:35:25.510Z,4.79
2018-02-19T17:36:52.771Z,4.81
2018-02-19T17:38:20.014Z,4.77
2018-02-19T17:39:47.106Z,4.68
2018-02-19T17:41:15.410Z,4.57
2018-02-19T17:42:41.718Z,4.42
2018-02-19T17:44:08.981Z,4.28
2018-02-19T17:45:37.196Z,4.21
2018-02-19T17:47:04.182Z,4.14
2018-02-19T17:48:30.496Z,4.10
2018-02-19T17:49:58.743Z,4.05
2018-02-19T17:51:26.071Z,4.06
2018-02-19T17:52:53.321Z,4.12
2018-02-19T17:54:20.563Z,4.12
2018-02-19T17:55:47.770Z,4.11
2018-02-19T17:57:14.111Z,4.13
2018-02-19T17:58:41.275Z,4.21
2018-02-19T18:00:08.484Z,4.27
2018-02-19T18:01:36.711Z,4.33
2018-02-19T18:03:02.993Z,4.37
2018-02-19T18:04:31.028Z,4.42
2018-02-19T18:05:56.994Z,4.41
2018-02-19T18:07:25.233Z,4.42
2018-02-19T18:08:51.501Z,4.46
2018-02-19T18:10:19.497Z,4.47
2018-02-19T18:11:46.829Z,4.49
2018-02-19T18:13:12.984Z,4.53
2018-02-19T18:14:43.181Z,4.54
2018-02-19T18:16:07.352Z,4.53
2018-02-19T18:17:35.525Z,4.54
2018-02-19T18:19:01.564Z,4.55
2018-02-19T18:20:28.572Z,4.51
2018-02-19T18:21:56.677Z,4.46
2018-02-19T18:23:23.738Z,4.41
2018-02-19T18:24:49.712Z,4.37
2018-02-19T18:26:16.982Z,4.30
2018-02-19T18:27:44.258Z,4.19
2018-02-19T18:29:12.407Z,4.16
2018-02-19T18:30:39.722Z,4.14
2018-02-19T18:32:05.728Z,4.09
2018-02-19T18:33:32.881Z,4.03
2018-02-19T18:35:00.106Z,3.98
2018-02-19T18:36:27.034Z,3.97
2018-02-19T18:37:55.292Z,3.95
2018-02-19T18:39:22.636Z,3.89
2018-02-19T18:40:48.951Z,3.74
2018-02-19T18:42:17.128Z,3.64
2018-02-19T18:43:43.407Z,3.56
2018-02-19T18:45:11.559Z,3.49
2018-02-19T18:46:38.565Z,3.44
2018-02-19T18:48:04.687Z,3.40
2018-02-19T18:49:32.785Z,3.38
2018-02-19T18:50:59.677Z,3.37
2018-02-19T18:52:26.123Z,3.37
2018-02-19T18:53:53.926Z,3.37
2018-02-19T18:55:20.941Z,3.37
2018-02-19T18:56:46.970Z,3.38
2018-02-19T18:58:15.105Z,3.40
2018-02-19T18:59:41.409Z,3.42
2018-02-19T19:01:09.591Z,3.45
2018-02-19T19:02:35.802Z,3.48
2018-02-19T19:04:02.891Z,3.49
2018-02-19T19:05:30.028Z,3.50
2018-02-19T19:06:57.116Z,3.51
2018-02-19T19:08:24.321Z,3.52
2018-02-19T19:09:52.460Z,3.53
2018-02-19T19:11:19.673Z,3.52
2018-02-19T19:12:45.974Z,3.54
2018-02-19T19:14:13.153Z,3.55
2018-02-19T19:15:41.480Z,3.55
2018-02-19T19:17:07.793Z,3.57
2018-02-19T19:18:35.162Z,3.59
2018-02-19T19:20:02.301Z,3.64